createdAt,value
2019-06-07T00:00:38.069Z,11.40
2019-06-07T00:02:56.233Z,11.40
2019-06-07T00:05:24.769Z,11.30
2019-06-07T00:07:52.677Z,11.40
2019-06-07T00:10:35.898Z,11.40
2019-06-07T00:12:50.880Z,11.40
2019-06-07T00:15:26.891Z,11.50
2019-06-07T00:17:48.641Z,11.50
2019-06-07T00:20:22.746Z,11.50
2019-06-07T00:22:47.074Z,11.40
2019-06-07T00:25:18.391Z,11.40
2019-06-07T00:27:47.184Z,11.40
2019-06-07T00:30:37.608Z,11.40
2019-06-07T00:32:46.475Z,11.30
2019-06-07T00:35:18.942Z,11.30
2019-06-07T00:37:45.603Z,11.30
2019-06-07T00:40:20.632Z,11.30
2019-06-07T00:42:44.832Z,11.30
2019-06-07T00:45:14.679Z,11.30
2019-06-07T00:47:44.826Z,11.30
2019-06-07T00:50:13.899Z,11.30
2019-06-07T00:53:14.566Z,11.30
2019-06-07T00:55:17.648Z,11.30
2019-06-07T00:57:46.861Z,11.30
2019-06-07T01:00:21.467Z,11.30
2019-06-07T01:02:47.629Z,11.30
2019-06-07T01:05:20.258Z,11.30
2019-06-07T01:07:46.001Z,11.30
2019-06-07T01:10:22.891Z,11.30
2019-06-07T01:12:46.733Z,11.20
2019-06-07T01:15:17.545Z,11.20
2019-06-07T01:18:32.452Z,11.20
2019-06-07T01:20:19.108Z,11.10
2019-06-07T01:22:47.421Z,11.20
2019-06-07T01:25:18.090Z,11.10
2019-06-07T01:27:46.212Z,11.20
2019-06-07T01:30:16.189Z,11.20
2019-06-07T01:32:44.519Z,11.20
2019-06-07T01:35:13.861Z,11.20
2019-06-07T01:37:42.086Z,11.20
2019-06-07T01:40:11.172Z,11.20
2019-06-07T01:42:40.022Z,11.20
2019-06-07T01:45:10.854Z,11.30
2019-06-07T01:47:39.672Z,11.30
2019-06-07T01:50:09.469Z,11.30
2019-06-07T01:52:37.790Z,11.40
2019-06-07T01:55:06.818Z,11.30
2019-06-07T01:57:47.634Z,11.20
2019-06-07T02:00:06.777Z,11.20
2019-06-07T02:02:35.216Z,11.20
2019-06-07T02:05:04.621Z,11.10
2019-06-07T02:07:33.454Z,11.10
2019-06-07T02:10:02.448Z,11.10
2019-06-07T02:12:40.792Z,11.20
2019-06-07T02:15:00.811Z,11.20
2019-06-07T02:17:30.911Z,11.30
2019-06-07T02:19:59.378Z,11.20
2019-06-07T02:22:32.123Z,11.10
2019-06-07T02:25:34.442Z,11.10
2019-06-07T02:27:30.629Z,11.00
2019-06-07T02:29:59.267Z,11.00
2019-06-07T02:32:32.008Z,11.00
2019-06-07T02:34:59.376Z,10.90
2019-06-07T02:37:31.600Z,10.90
2019-06-07T02:39:57.392Z,10.80
2019-06-07T02:42:29.364Z,10.80
2019-06-07T02:44:55.277Z,10.80
2019-06-07T02:47:25.145Z,10.90
2019-06-07T02:49:53.337Z,10.90
2019-06-07T02:52:21.242Z,10.90
2019-06-07T02:54:49.699Z,10.90
2019-06-07T02:57:21.157Z,10.90
2019-06-07T03:00:06.316Z,10.90
2019-06-07T03:02:21.531Z,10.90
2019-06-07T03:04:49.715Z,10.90
2019-06-07T03:07:17.735Z,10.90
2019-06-07T03:09:47.388Z,10.90
2019-06-07T03:12:18.514Z,10.90
2019-06-07T03:14:46.662Z,11.00
2019-06-07T03:17:36.487Z,10.90
2019-06-07T03:20:05.299Z,10.90
2019-06-07T03:22:39.845Z,10.80
2019-06-07T03:25:06.994Z,10.90
2019-06-07T03:27:44.117Z,10.90
2019-06-07T03:30:34.984Z,10.80
2019-06-07T03:32:45.607Z,10.80
2019-06-07T03:35:05.865Z,10.80
2019-06-07T03:37:37.665Z,10.70
2019-06-07T03:40:04.871Z,10.70
2019-06-07T03:42:34.832Z,10.60
2019-06-07T03:45:04.488Z,10.60
2019-06-07T03:47:36.535Z,10.60
2019-06-07T03:50:03.453Z,10.60
2019-06-07T03:52:35.008Z,10.60
2019-06-07T03:55:01.533Z,10.50
2019-06-07T03:57:37.086Z,10.60
2019-06-07T03:59:59.044Z,10.60
2019-06-07T04:02:27.847Z,10.60
2019-06-07T04:04:56.166Z,10.60
2019-06-07T04:07:24.401Z,10.50
2019-06-07T04:09:52.276Z,10.60
2019-06-07T04:12:20.744Z,10.60
2019-06-07T04:14:48.647Z,10.50
2019-06-07T04:17:16.586Z,10.60
2019-06-07T04:19:44.483Z,10.60
2019-06-07T04:22:12.327Z,10.70
2019-06-07T04:24:42.054Z,10.70
2019-06-07T04:27:10.178Z,10.70
2019-06-07T04:30:04.885Z,10.70
2019-06-07T04:32:08.311Z,10.70
2019-06-07T04:34:40.141Z,10.80
2019-06-07T04:37:07.991Z,10.80
2019-06-07T04:39:40.650Z,10.80
2019-06-07T04:42:06.061Z,10.80
2019-06-07T04:44:39.310Z,10.90
2019-06-07T04:47:07.035Z,11.00
2019-06-07T04:49:38.121Z,11.10
2019-06-07T04:52:05.778Z,11.30
2019-06-07T04:54:37.360Z,11.40
2019-06-07T04:57:04.194Z,11.50
2019-06-07T05:00:04.366Z,11.60
2019-06-07T05:02:02.340Z,11.80
2019-06-07T05:04:32.593Z,11.80
2019-06-07T05:07:00.082Z,11.90
2019-06-07T05:09:29.970Z,12.00
2019-06-07T05:11:58.247Z,12.10
2019-06-07T05:14:26.352Z,12.20
2019-06-07T05:16:54.945Z,12.30
2019-06-07T05:19:23.853Z,12.40
2019-06-07T05:22:03.495Z,12.50
2019-06-07T05:27:16.823Z,12.80
2019-06-07T05:30:06.447Z,12.90
2019-06-07T05:32:15.648Z,13.00
2019-06-07T05:34:47.385Z,13.10
2019-06-07T05:37:13.529Z,13.10
2019-06-07T05:39:45.624Z,13.10
2019-06-07T05:42:11.961Z,13.20
2019-06-07T05:44:44.060Z,13.30
2019-06-07T05:47:10.925Z,13.30
2019-06-07T05:49:43.695Z,13.20
2019-06-07T05:52:10.598Z,13.30
2019-06-07T05:54:40.532Z,13.40
2019-06-07T05:57:08.895Z,13.70
2019-06-07T05:59:41.084Z,13.90
2019-06-07T06:02:21.763Z,14.20
2019-06-07T06:04:39.343Z,14.40
2019-06-07T06:07:07.098Z,14.40
2019-06-07T06:09:36.545Z,14.60
2019-06-07T06:12:04.949Z,14.90
2019-06-07T06:14:35.382Z,15.10
2019-06-07T06:17:04.181Z,15.60
2019-06-07T06:19:32.862Z,15.50
2019-06-07T06:22:01.543Z,15.20
2019-06-07T06:24:29.752Z,14.90
2019-06-07T06:27:15.214Z,14.90
2019-06-07T06:29:28.247Z,15.00
2019-06-07T06:32:40.320Z,15.20
2019-06-07T06:34:26.681Z,15.20
2019-06-07T06:36:55.209Z,15.00
2019-06-07T06:39:24.028Z,14.90
2019-06-07T06:42:00.830Z,15.20
2019-06-07T06:44:24.256Z,15.20
2019-06-07T06:46:58.197Z,15.20
2019-06-07T06:49:24.531Z,15.40
2019-06-07T06:51:53.932Z,15.20
2019-06-07T06:54:39.400Z,15.20
2019-06-07T06:56:52.838Z,15.20
2019-06-07T06:59:38.198Z,15.30
2019-06-07T07:01:52.725Z,15.40
2019-06-07T07:04:21.026Z,15.30
2019-06-07T07:06:50.642Z,15.30
2019-06-07T07:09:20.394Z,15.50
2019-06-07T07:12:03.428Z,15.60
2019-06-07T07:14:20.014Z,15.80
2019-06-07T07:16:54.586Z,15.80
2019-06-07T07:19:20.766Z,15.80
2019-06-07T07:21:53.117Z,15.70
2019-06-07T07:24:22.494Z,15.70
2019-06-07T07:26:53.959Z,16.00
2019-06-07T07:29:35.476Z,16.30
2019-06-07T07:32:04.131Z,16.30
2019-06-07T07:34:37.501Z,16.60
2019-06-07T07:37:06.616Z,16.60
2019-06-07T07:39:35.292Z,16.60
2019-06-07T07:42:20.046Z,16.80
2019-06-07T07:44:37.161Z,16.90
2019-06-07T07:47:06.844Z,17.10
2019-06-07T07:49:36.385Z,17.10
2019-06-07T07:52:08.004Z,17.00
2019-06-07T07:54:38.023Z,16.90
2019-06-07T07:57:06.576Z,17.00
2019-06-07T07:59:44.218Z,17.10
2019-06-07T08:02:06.344Z,17.10
2019-06-07T08:05:13.011Z,17.30
2019-06-07T08:07:07.495Z,17.60
2019-06-07T08:09:37.372Z,17.70
2019-06-07T08:12:07.268Z,17.50
2019-06-07T08:15:16.343Z,17.50
2019-06-07T08:17:47.241Z,17.30
2019-06-07T08:20:19.384Z,17.30
2019-06-07T08:22:50.068Z,17.20
2019-06-07T08:25:19.656Z,17.40
2019-06-07T08:27:49.528Z,17.30
2019-06-07T08:30:47.845Z,17.30
2019-06-07T08:32:54.620Z,17.20
2019-06-07T08:36:14.217Z,17.30
2019-06-07T08:38:46.582Z,17.20
2019-06-07T08:41:05.917Z,17.30
2019-06-07T08:43:29.241Z,17.50
2019-06-07T08:46:04.384Z,17.70
2019-06-07T08:48:30.330Z,17.50
2019-06-07T08:51:06.520Z,17.80
2019-06-07T08:53:30.221Z,18.10
2019-06-07T08:56:06.976Z,17.80
2019-06-07T08:58:30.661Z,17.30
2019-06-07T09:01:05.820Z,17.20
2019-06-07T09:03:32.537Z,17.00
2019-06-07T09:06:16.392Z,16.90
2019-06-07T09:08:33.004Z,16.70
2019-06-07T09:11:06.295Z,16.70
2019-06-07T09:13:39.502Z,16.80
2019-06-07T09:16:19.785Z,16.80
2019-06-07T09:18:47.885Z,16.70
2019-06-07T09:21:16.065Z,16.70
2019-06-07T09:23:45.057Z,16.60
2019-06-07T09:26:24.147Z,16.60
2019-06-07T09:28:58.433Z,16.70
2019-06-07T09:31:48.820Z,16.60
2019-06-07T09:33:59.801Z,16.60
2019-06-07T09:36:26.014Z,16.80
2019-06-07T09:38:54.007Z,17.10
2019-06-07T09:41:45.822Z,17.40
2019-06-07T09:44:05.413Z,17.50
2019-06-07T09:46:22.465Z,17.80
2019-06-07T09:51:20.855Z,17.90
2019-06-07T09:53:48.779Z,17.90
2019-06-07T09:56:16.712Z,17.90
2019-06-07T09:58:51.982Z,18.00
2019-06-07T10:01:14.806Z,18.20
2019-06-07T10:03:43.037Z,18.20
2019-06-07T10:06:13.566Z,18.30
2019-06-07T10:11:14.478Z,18.70
2019-06-07T10:13:42.989Z,18.80
2019-06-07T10:16:10.983Z,19.00
2019-06-07T10:18:39.088Z,19.40
2019-06-07T10:21:15.022Z,19.90
2019-06-07T10:23:42.538Z,20.20
2019-06-07T10:26:11.342Z,20.60
2019-06-07T10:28:42.094Z,20.60
2019-06-07T10:31:11.435Z,20.40
2019-06-07T10:33:44.026Z,20.30
2019-06-07T10:36:12.728Z,20.30
2019-06-07T10:38:41.647Z,20.20
2019-06-07T10:41:11.136Z,20.80
2019-06-07T10:43:39.505Z,21.50
2019-06-07T10:46:07.708Z,21.60
2019-06-07T10:48:36.354Z,22.20
2019-06-07T10:51:08.522Z,22.10
2019-06-07T10:53:39.277Z,21.70
2019-06-07T10:56:08.908Z,21.60
2019-06-07T10:58:36.913Z,22.00
2019-06-07T11:01:05.278Z,22.40
2019-06-07T11:03:33.549Z,22.00
2019-06-07T11:06:04.074Z,22.30
2019-06-07T11:08:32.631Z,22.30
2019-06-07T11:11:00.834Z,22.30
2019-06-07T11:13:29.117Z,22.20
2019-06-07T11:15:57.630Z,22.50
2019-06-07T11:18:25.693Z,22.20
2019-06-07T11:20:53.708Z,22.60
2019-06-07T11:23:22.659Z,22.50
2019-06-07T11:25:50.849Z,21.90
2019-06-07T11:28:19.316Z,22.10
2019-06-07T11:30:47.464Z,22.10
2019-06-07T11:33:16.424Z,22.30
2019-06-07T11:35:45.252Z,22.10
2019-06-07T11:38:14.669Z,21.70
2019-06-07T11:40:42.820Z,21.60
2019-06-07T11:43:11.186Z,21.40
2019-06-07T11:45:39.186Z,21.20
2019-06-07T11:48:07.276Z,21.00
2019-06-07T11:50:35.824Z,20.80
2019-06-07T11:53:04.044Z,20.90
2019-06-07T11:55:32.590Z,21.00
2019-06-07T11:58:00.869Z,21.00
2019-06-07T12:00:29.344Z,21.00
2019-06-07T12:02:57.539Z,21.20
2019-06-07T12:05:25.703Z,21.50
2019-06-07T12:07:56.964Z,21.80
2019-06-07T12:10:23.909Z,21.90
2019-06-07T12:12:52.247Z,21.80
2019-06-07T12:15:20.623Z,21.90
2019-06-07T12:17:48.863Z,21.70
2019-06-07T12:20:20.801Z,21.50
2019-06-07T12:22:48.387Z,21.40
2019-06-07T12:25:22.602Z,21.30
2019-06-07T12:27:47.007Z,21.20
2019-06-07T12:30:22.427Z,21.20
2019-06-07T12:32:45.189Z,21.10
2019-06-07T12:35:13.636Z,21.00
2019-06-07T12:37:44.370Z,20.80
2019-06-07T12:40:19.337Z,20.70
2019-06-07T12:42:43.229Z,20.70
2019-06-07T12:45:12.942Z,20.50
2019-06-07T12:47:41.219Z,20.50
2019-06-07T12:50:09.471Z,20.50
2019-06-07T12:52:37.483Z,20.40
2019-06-07T12:55:05.731Z,20.40
2019-06-07T12:57:37.138Z,20.40
2019-06-07T13:00:06.795Z,20.30
2019-06-07T13:02:34.854Z,20.30
2019-06-07T13:05:04.740Z,20.10
2019-06-07T13:07:33.501Z,19.60
2019-06-07T13:10:02.080Z,18.70
2019-06-07T13:12:30.047Z,17.80
2019-06-07T13:14:58.148Z,17.30
2019-06-07T13:17:25.951Z,16.80
2019-06-07T13:19:54.045Z,16.50
2019-06-07T13:22:22.326Z,16.30
2019-06-07T13:24:50.392Z,16.20
2019-06-07T13:27:20.133Z,16.00
2019-06-07T13:29:48.305Z,15.90
2019-06-07T13:32:17.439Z,15.90
2019-06-07T13:34:45.598Z,15.90
2019-06-07T13:37:14.334Z,15.80
2019-06-07T13:39:42.461Z,15.90
2019-06-07T13:42:10.670Z,15.90
2019-06-07T13:44:39.060Z,15.90
2019-06-07T13:47:07.515Z,15.80
2019-06-07T13:49:35.774Z,15.90
2019-06-07T13:52:04.024Z,15.80
2019-06-07T13:54:41.118Z,15.80
2019-06-07T13:57:11.023Z,15.80
2019-06-07T13:59:39.221Z,15.90
2019-06-07T14:02:07.250Z,16.00
2019-06-07T14:04:35.494Z,16.10
2019-06-07T14:07:04.157Z,16.20
2019-06-07T14:09:32.588Z,16.20
2019-06-07T14:12:04.399Z,16.10
2019-06-07T14:14:34.189Z,16.00
2019-06-07T14:17:03.382Z,16.00
2019-06-07T14:19:31.723Z,15.90
2019-06-07T14:22:00.081Z,15.90
2019-06-07T14:24:31.215Z,15.90
2019-06-07T14:27:55.149Z,16.00
2019-06-07T14:30:32.683Z,16.20
2019-06-07T14:33:42.882Z,16.40
2019-06-07T14:36:14.508Z,16.50
2019-06-07T14:38:42.714Z,16.50
2019-06-07T14:41:27.068Z,16.50
2019-06-07T14:43:58.378Z,16.40
2019-06-07T14:46:46.890Z,16.40
2019-06-07T14:49:16.645Z,16.30
2019-06-07T14:51:52.761Z,16.20
2019-06-07T14:54:20.839Z,16.00
2019-06-07T14:56:51.150Z,15.80
2019-06-07T14:59:22.070Z,15.70
2019-06-07T15:01:50.406Z,15.80
2019-06-07T15:04:18.817Z,15.80
2019-06-07T15:06:46.971Z,15.80
2019-06-07T15:09:15.389Z,15.80
2019-06-07T15:11:43.393Z,15.80
2019-06-07T15:14:15.913Z,15.70
2019-06-07T15:16:42.353Z,15.70
2019-06-07T15:19:10.280Z,15.80
2019-06-07T15:21:39.226Z,15.80
2019-06-07T15:24:07.342Z,15.90
2019-06-07T15:26:36.411Z,16.00
2019-06-07T15:29:04.600Z,16.10
2019-06-07T15:31:34.523Z,16.20
2019-06-07T15:34:02.481Z,16.30
2019-06-07T15:36:30.384Z,16.40
2019-06-07T15:38:58.480Z,16.50
2019-06-07T15:41:26.695Z,16.70
2019-06-07T15:43:54.534Z,17.10
2019-06-07T15:46:22.512Z,17.70
2019-06-07T15:48:50.370Z,18.00
2019-06-07T15:51:18.247Z,18.30
2019-06-07T15:53:46.182Z,18.20
2019-06-07T15:56:15.618Z,17.90
2019-06-07T15:58:43.493Z,17.80
2019-06-07T16:01:11.494Z,17.70
2019-06-07T16:03:39.960Z,17.80
2019-06-07T16:06:07.827Z,17.90
2019-06-07T16:08:36.328Z,17.90
2019-06-07T16:11:04.440Z,17.60
2019-06-07T16:13:32.553Z,17.50
2019-06-07T16:16:00.455Z,17.50
2019-06-07T16:18:28.417Z,17.40
2019-06-07T16:20:56.325Z,17.30
2019-06-07T16:23:24.720Z,17.20
2019-06-07T16:25:52.971Z,17.10
2019-06-07T16:28:20.966Z,17.10
2019-06-07T16:30:49.820Z,17.70
2019-06-07T16:33:17.713Z,18.80
2019-06-07T16:35:45.651Z,19.40
2019-06-07T16:38:13.680Z,19.80
2019-06-07T16:40:42.425Z,20.30
2019-06-07T16:43:18.032Z,20.70
2019-06-07T16:45:40.900Z,20.50
2019-06-07T16:48:08.805Z,20.00
2019-06-07T16:50:37.178Z,19.80
2019-06-07T16:53:05.464Z,19.80
2019-06-07T16:55:33.517Z,19.80
2019-06-07T16:58:01.461Z,19.50
2019-06-07T17:00:29.469Z,19.20
2019-06-07T17:02:57.489Z,19.20
2019-06-07T17:05:25.486Z,19.20
2019-06-07T17:07:53.397Z,19.20
2019-06-07T17:10:22.049Z,18.90
2019-06-07T17:12:50.704Z,18.60
2019-06-07T17:15:19.411Z,18.40
2019-06-07T17:17:47.351Z,18.30
2019-06-07T17:20:17.466Z,18.40
2019-06-07T17:22:45.782Z,18.30
2019-06-07T17:25:15.661Z,18.00
2019-06-07T17:27:43.967Z,17.80
2019-06-07T17:30:12.819Z,17.50
2019-06-07T17:32:50.869Z,17.30
2019-06-07T17:35:11.081Z,17.20
2019-06-07T17:37:41.573Z,17.20
2019-06-07T17:40:09.499Z,17.10
2019-06-07T17:42:37.481Z,17.10
2019-06-07T17:45:06.165Z,17.00
2019-06-07T17:47:34.176Z,17.00
2019-06-07T17:50:02.593Z,17.00
2019-06-07T17:52:30.750Z,17.30
2019-06-07T17:54:59.084Z,17.30
2019-06-07T17:57:27.370Z,17.30
2019-06-07T17:59:55.268Z,17.10
2019-06-07T18:02:23.383Z,17.10
2019-06-07T18:04:51.687Z,17.10
2019-06-07T18:07:20.396Z,17.00
2019-06-07T18:09:49.680Z,17.00
2019-06-07T18:12:18.089Z,17.00
2019-06-07T18:14:46.187Z,17.10
2019-06-07T18:17:14.287Z,17.20
2019-06-07T18:19:42.304Z,17.10
2019-06-07T18:22:10.829Z,17.10
2019-06-07T18:24:39.319Z,17.10
2019-06-07T18:27:07.709Z,17.00
2019-06-07T18:29:36.222Z,16.90
2019-06-07T18:32:04.364Z,16.90
2019-06-07T18:34:32.530Z,16.80
2019-06-07T18:37:00.594Z,16.80
2019-06-07T18:39:28.847Z,16.80
2019-06-07T18:41:56.864Z,16.60
2019-06-07T18:44:25.907Z,16.50
2019-06-07T18:46:54.386Z,16.50
2019-06-07T18:49:24.238Z,16.50
2019-06-07T18:52:10.547Z,16.40
2019-06-07T18:54:38.999Z,16.50
2019-06-07T18:57:08.535Z,16.40
2019-06-07T18:59:36.906Z,16.30
2019-06-07T19:02:07.442Z,16.40
2019-06-07T19:04:37.753Z,16.30
2019-06-07T19:07:07.368Z,16.30
2019-06-07T19:09:36.002Z,16.30
2019-06-07T19:12:07.226Z,16.30
2019-06-07T19:14:41.936Z,16.20
2019-06-07T19:17:10.353Z,15.80
2019-06-07T19:19:42.174Z,15.50
2019-06-07T19:22:11.951Z,15.30
2019-06-07T19:24:41.140Z,15.20
2019-06-07T19:27:10.974Z,15.10
2019-06-07T19:29:39.459Z,15.10
2019-06-07T19:32:09.516Z,15.00
2019-06-07T19:34:39.335Z,14.90
2019-06-07T19:37:07.885Z,14.90
2019-06-07T19:39:36.325Z,14.90
2019-06-07T19:42:04.842Z,14.90
2019-06-07T19:44:33.290Z,14.80
2019-06-07T19:47:02.705Z,14.80
2019-06-07T19:49:31.236Z,14.90
2019-06-07T19:52:01.079Z,14.90
2019-06-07T19:54:30.760Z,15.00
2019-06-07T19:56:59.696Z,15.00
2019-06-07T19:59:27.963Z,14.90
2019-06-07T20:01:57.774Z,14.80
2019-06-07T20:04:26.257Z,14.90
2019-06-07T20:06:54.571Z,14.90
2019-06-07T20:09:25.649Z,15.00
2019-06-07T20:11:56.836Z,15.00
2019-06-07T20:14:25.636Z,15.10
2019-06-07T20:16:59.575Z,15.10
2019-06-07T20:19:28.035Z,15.20
2019-06-07T20:22:01.090Z,15.30
2019-06-07T20:24:31.876Z,15.40
2019-06-07T20:27:02.326Z,15.40
2019-06-07T20:29:32.054Z,15.50
2019-06-07T20:32:04.758Z,15.50
2019-06-07T20:34:33.129Z,15.60
2019-06-07T20:37:03.930Z,15.60
2019-06-07T20:39:34.405Z,15.60
2019-06-07T20:42:03.528Z,15.60
2019-06-07T20:44:31.740Z,15.60
2019-06-07T20:47:00.542Z,15.60
2019-06-07T20:49:28.704Z,15.50
2019-06-07T20:51:58.225Z,15.40
2019-06-07T20:54:26.868Z,15.40
2019-06-07T20:56:55.542Z,15.40
2019-06-07T20:59:25.996Z,15.40
2019-06-07T21:01:54.302Z,15.40
2019-06-07T21:04:22.460Z,15.30
2019-06-07T21:06:51.129Z,15.30
2019-06-07T21:09:19.307Z,15.30
2019-06-07T21:11:47.325Z,15.30
2019-06-07T21:14:15.456Z,15.20
2019-06-07T21:16:43.494Z,15.10
2019-06-07T21:19:12.029Z,15.10
2019-06-07T21:21:40.490Z,15.00
2019-06-07T21:24:08.993Z,15.10
2019-06-07T21:26:37.116Z,15.10
2019-06-07T21:29:05.212Z,15.10
2019-06-07T21:31:33.361Z,15.20
2019-06-07T21:34:01.881Z,15.10
2019-06-07T21:36:29.975Z,15.00
2019-06-07T21:38:58.055Z,14.90
2019-06-07T21:41:26.247Z,14.70
2019-06-07T21:43:54.277Z,14.60
2019-06-07T21:46:22.391Z,14.50
2019-06-07T21:48:50.463Z,14.40
2019-06-07T21:51:19.000Z,14.30
2019-06-07T21:53:47.042Z,14.20
2019-06-07T21:56:15.125Z,14.20
2019-06-07T21:58:43.228Z,14.20
2019-06-07T22:01:22.641Z,14.30
2019-06-07T22:03:50.751Z,14.30
2019-06-07T22:06:19.506Z,14.40
2019-06-07T22:08:47.599Z,14.40
2019-06-07T22:11:16.033Z,14.40
2019-06-07T22:13:44.140Z,14.40
2019-06-07T22:16:26.166Z,14.50
2019-06-07T22:18:42.732Z,14.50
2019-06-07T22:21:10.806Z,14.60
2019-06-07T22:23:38.789Z,14.50
2019-06-07T22:26:07.333Z,14.40
2019-06-07T22:28:35.497Z,14.20
2019-06-07T22:31:03.506Z,14.00
2019-06-07T22:33:32.904Z,13.90
2019-06-07T22:36:01.108Z,13.90
2019-06-07T22:38:29.236Z,13.80
2019-06-07T22:40:57.157Z,13.70
2019-06-07T22:43:24.993Z,13.50
2019-06-07T22:45:53.177Z,13.40
2019-06-07T22:48:21.411Z,13.30
2019-06-07T22:50:50.079Z,13.30
2019-06-07T22:53:18.010Z,13.30
2019-06-07T22:55:49.723Z,13.30
2019-06-07T22:58:19.015Z,13.20
2019-06-07T23:00:47.065Z,13.20
2019-06-07T23:03:15.073Z,13.10
2019-06-07T23:05:42.858Z,13.00
2019-06-07T23:08:11.038Z,13.00
2019-06-07T23:10:38.924Z,13.00
2019-06-07T23:13:07.182Z,13.00
2019-06-07T23:15:35.016Z,13.00
2019-06-07T23:18:02.935Z,13.00
2019-06-07T23:20:33.014Z,13.10
2019-06-07T23:23:01.132Z,13.30
2019-06-07T23:25:29.237Z,13.30
2019-06-07T23:27:57.574Z,13.20
2019-06-07T23:30:25.990Z,13.20
2019-06-07T23:32:54.690Z,13.20
2019-06-07T23:35:22.858Z,13.30
2019-06-07T23:37:51.008Z,13.20
2019-06-07T23:40:19.483Z,13.20
2019-06-07T23:42:47.560Z,13.20
2019-06-07T23:45:17.413Z,13.20
2019-06-07T23:47:45.565Z,13.20
2019-06-07T23:50:15.585Z,13.20
2019-06-07T23:52:47.588Z,13.30
2019-06-07T23:55:16.046Z,13.40
2019-06-07T23:57:44.232Z,13.50
